Seminole, TX

8:53 PM CDT on June 24, 2017 (GMT -0500)
Seminole

Weather History for KGNC - January, 2013

Change the Weather History Date:

Sunday, January 27, 2013

  Actual Average (KHOB) Record (KHOB)
Temperature  
Mean Temperature 60 °F -  
Max Temperature 73 °F 56 °F 75 °F (2002)
Min Temperature 48 °F 30 °F 19 °F (1950)
Degree Days  
Heating Degree Days 4    
Growing Degree Days 10 (Base 50)    
Moisture  
Dew Point 44 °F    
Average Humidity 62    
Maximum Humidity 98    
Minimum Humidity 26    
Precipitation  
Precipitation 0.00 in - - ()
Sea Level Pressure  
Sea Level Pressure 29.98 in    
Wind  
Wind Speed 8 mph (WSW)    
Max Wind Speed 24 mph    
Max Gust Speed 36 mph    
Visibility 8 miles    
Events      
Averages and records for this station are not official NWS values.
T = Trace of Precipitation, MM = Missing Value Source: NWS Daily Summary

Daily Weather History Graph

Daily Weather History Graph

Search for Another Location

Airport or City:

Trip Planner

Search our weather history database for the weather conditions in past years. The results will help you decide how hot, cold, wet, or windy it might be!

Date:

Astronomy

Jan. 27, 2013 Rise Set
Actual Time 7:48 AM CST 6:19 PM CST
Civil Twilight 7:22 AM CST 6:45 PM CST
Nautical Twilight 6:52 AM CST 7:14 PM CST
Astronomical Twilight 6:23 AM CST 7:43 PM CST
Moon 7:09 PM CST (1/27) 7:47 AM CST (1/27)
Length of Visible Light 11h 22m
Length of Day
10h 30m
Full, 100% of the Moon is Illuminated
Jan 27
Full
Feb 3
Last Quarter
Feb 10
New
Feb 17
First Quarter
Feb 25
Full

Hourly Weather History & Observations

Time (CST) Temp. Dew Point Humidity Pressure Visibility Wind Dir Wind Speed Gust Speed Precip Events Conditions
12:15 AM 56.7 °F 52.7 °F 87% 30.00 in 10.0 mi SSW 4.6 mph - N/A   Clear
12:35 AM 55.8 °F 52.7 °F 89% 30.00 in 7.0 mi SW 5.8 mph - N/A   Clear
12:55 AM 55.0 °F 52.7 °F 92% 30.00 in 7.0 mi SSW 5.8 mph - N/A   Clear
1:15 AM 55.6 °F 53.6 °F 93% 30.00 in 7.0 mi SW 5.8 mph - N/A   Clear
1:35 AM 55.9 °F 53.8 °F 92% 30.00 in 7.0 mi WSW 5.8 mph - N/A   Clear
1:55 AM 55.2 °F 53.2 °F 93% 30.00 in 7.0 mi WSW 5.8 mph - N/A   Clear
2:15 AM 54.0 °F 52.3 °F 94% 30.00 in 5.0 mi WSW 3.5 mph - N/A   Clear
2:35 AM 53.6 °F 52.2 °F 95% 30.00 in 4.0 mi Calm Calm - N/A   Clear
2:55 AM 53.6 °F 52.2 °F 95% 30.00 in 4.0 mi Calm Calm - N/A   Clear
3:15 AM 53.6 °F 52.2 °F 95% 30.00 in 4.0 mi Calm Calm - N/A   Clear
3:35 AM 53.6 °F 52.3 °F 95% 29.99 in 4.0 mi SW 5.8 mph - N/A   Clear
3:55 AM 53.8 °F 52.5 °F 95% 30.00 in 5.0 mi SW 8.1 mph - N/A   Clear
4:15 AM 54.5 °F 53.1 °F 95% 30.00 in 5.0 mi SW 6.9 mph - N/A   Clear
4:35 AM 54.1 °F 52.9 °F 95% 29.98 in 5.0 mi SSW 5.8 mph - N/A   Clear
4:55 AM 53.6 °F 52.3 °F 95% 29.99 in 4.0 mi SSW 5.8 mph - N/A   Clear
5:15 AM 52.9 °F 51.8 °F 96% 29.98 in 5.0 mi SSW 5.8 mph - N/A   Clear
5:35 AM 52.9 °F 51.8 °F 96% 29.98 in 5.0 mi SSW 5.8 mph - N/A   Clear
5:55 AM 52.7 °F 51.8 °F 97% 29.97 in 4.0 mi South 5.8 mph - N/A   Clear
6:15 AM 52.0 °F 51.1 °F 97% 29.97 in 4.0 mi SSW 5.8 mph - N/A   Clear
6:35 AM 51.6 °F 50.7 °F 97% 29.98 in 3.0 mi SSW 5.8 mph - N/A   Clear
6:55 AM 51.3 °F 50.5 °F 97% 29.99 in 3.0 mi SSW 6.9 mph - N/A   Clear
7:15 AM 51.3 °F 50.7 °F 98% 29.98 in 4.0 mi SSW 6.9 mph - N/A   Clear
7:35 AM 51.1 °F 50.4 °F 97% 29.99 in 4.0 mi SW 6.9 mph - N/A   Clear
7:55 AM 51.1 °F 50.4 °F 97% 29.99 in 7.0 mi SW 8.1 mph - N/A   Clear
8:15 AM 51.6 °F 50.7 °F 97% 29.99 in 7.0 mi SW 8.1 mph - N/A   Clear
8:35 AM 52.3 °F 51.1 °F 95% 29.99 in 7.0 mi WSW 8.1 mph - N/A   Clear
8:55 AM 53.1 °F 50.9 °F 92% 29.99 in 10.0 mi SW 9.2 mph - N/A   Clear
9:15 AM 55.0 °F 51.6 °F 88% 30.00 in 10.0 mi SW 10.4 mph - N/A   Clear
9:35 AM 57.2 °F 52.0 °F 83% 30.00 in 10.0 mi SW 11.5 mph - N/A   Clear
9:55 AM 59.9 °F 52.0 °F 75% 30.00 in 10.0 mi SW 11.5 mph - N/A   Clear
10:15 AM 63.0 °F 49.6 °F 62% 30.00 in 10.0 mi WSW 13.8 mph - N/A   Clear
10:35 AM 64.2 °F 47.7 °F 55% 30.01 in 10.0 mi West 16.1 mph 21.9 mph N/A   Clear
10:55 AM 65.1 °F 46.2 °F 50% 30.01 in 10.0 mi West 19.6 mph 23.0 mph N/A   Clear
11:15 AM 66.2 °F 44.1 °F 45% 30.02 in 10.0 mi West 19.6 mph 25.3 mph N/A   Clear
11:35 AM 66.9 °F 44.1 °F 44% 30.01 in 10.0 mi West 20.7 mph 26.5 mph N/A   Clear
11:55 AM 67.6 °F 41.4 °F 38% 30.00 in 10.0 mi West 19.6 mph 28.8 mph N/A   Clear
12:15 PM 68.4 °F 41.5 °F 38% 30.00 in 10.0 mi WSW 17.3 mph 26.5 mph N/A   Clear
12:35 PM 69.4 °F 41.5 °F 36% 29.99 in 10.0 mi WSW 18.4 mph 24.2 mph N/A   Clear
12:55 PM 70.5 °F 40.5 °F 34% 29.97 in 10.0 mi WSW 19.6 mph 28.8 mph N/A   Clear
1:15 PM 71.1 °F 39.6 °F 32% 29.96 in 10.0 mi WSW 17.3 mph 25.3 mph N/A   Clear
1:35 PM 71.4 °F 38.7 °F 30% 29.96 in 10.0 mi WSW 21.9 mph 29.9 mph N/A   Clear
1:55 PM 71.4 °F 38.1 °F 30% 29.95 in 10.0 mi WSW 23.0 mph 34.5 mph N/A   Clear
2:15 PM 71.6 °F 38.3 °F 30% 29.94 in 10.0 mi WSW 19.6 mph 35.7 mph N/A   Clear
2:35 PM 72.1 °F 37.4 °F 28% 29.94 in 10.0 mi WSW 24.2 mph 32.2 mph N/A   Clear
2:55 PM 72.3 °F 36.7 °F 27% 29.93 in 10.0 mi WSW 21.9 mph 27.6 mph N/A   Clear
3:15 PM 72.9 °F 35.8 °F 26% 29.93 in 10.0 mi WSW 19.6 mph 32.2 mph N/A   Clear
3:35 PM 73.0 °F 36.1 °F 26% 29.92 in 10.0 mi WSW 17.3 mph 27.6 mph N/A   Clear
3:55 PM 72.9 °F 36.5 °F 27% 29.92 in 10.0 mi West 20.7 mph 24.2 mph N/A   Clear
4:15 PM 72.5 °F 36.7 °F 27% 29.93 in 10.0 mi West 21.9 mph 28.8 mph N/A   Clear
4:35 PM 71.6 °F 37.2 °F 29% 29.93 in 10.0 mi WSW 18.4 mph 27.6 mph N/A   Clear
4:55 PM 71.1 °F 37.2 °F 29% 29.93 in 10.0 mi West 17.3 mph 24.2 mph N/A   Clear
5:15 PM 70.3 °F 37.2 °F 30% 29.93 in 10.0 mi West 13.8 mph 25.3 mph N/A   Clear
5:35 PM 70.0 °F 37.4 °F 30% 29.93 in 10.0 mi West 11.5 mph 19.6 mph N/A   Clear
5:55 PM 68.9 °F 37.2 °F 31% 29.93 in 10.0 mi West 10.4 mph 17.3 mph N/A   Clear
6:15 PM 67.3 °F 37.0 °F 33% 29.94 in 10.0 mi West 8.1 mph - N/A   Clear
6:35 PM 64.8 °F 37.0 °F 36% 29.94 in 10.0 mi West 6.9 mph - N/A   Clear
6:55 PM 62.4 °F 37.0 °F 39% 29.95 in 10.0 mi West 5.8 mph - N/A   Clear
7:15 PM 61.5 °F 37.0 °F 40% 29.96 in 10.0 mi West 5.8 mph - N/A   Clear
7:35 PM 60.1 °F 36.9 °F 42% 29.96 in 10.0 mi West 10.4 mph - N/A   Clear
7:55 PM 60.1 °F 36.7 °F 42% 29.96 in 10.0 mi West 8.1 mph - N/A   Clear
8:15 PM 59.7 °F 36.5 °F 42% 29.97 in 10.0 mi West 9.2 mph - N/A   Clear
8:35 PM 58.8 °F 36.5 °F 43% 29.97 in 10.0 mi West 6.9 mph - N/A   Clear
8:55 PM 58.6 °F 36.7 °F 44% 29.96 in 10.0 mi WNW 5.8 mph - N/A   Clear
9:15 PM 58.1 °F 37.0 °F 45% 29.96 in 10.0 mi WSW 5.8 mph - N/A   Clear
9:35 PM 57.2 °F 37.2 °F 47% 29.97 in 10.0 mi WSW 4.6 mph - N/A   Clear
9:55 PM 55.8 °F 37.2 °F 50% 29.97 in 10.0 mi Calm Calm - N/A   Clear
10:15 PM 54.7 °F 37.4 °F 52% 29.97 in 10.0 mi Calm Calm - N/A   Clear
10:35 PM 51.8 °F 36.9 °F 57% 29.98 in 10.0 mi South 6.9 mph - N/A   Clear
10:55 PM 49.8 °F 36.7 °F 61% 29.99 in 10.0 mi SSW 3.5 mph - N/A   Clear
11:15 PM 49.3 °F 36.9 °F 62% 29.98 in 10.0 mi SSW 4.6 mph - N/A   Clear
11:35 PM 48.7 °F 36.7 °F 63% 29.99 in 10.0 mi South 5.8 mph - N/A   Clear
11:55 PM 48.0 °F 36.5 °F 64% 29.99 in 10.0 mi SSW 5.8 mph - N/A   Clear